sensor_id;sensor_type;location;lat;lon;timestamp;P1;durP1;ratioP1;P2;durP2;ratioP2
13040;SDS011;6587;42.728;23.288;2023-07-20T00:02:01;9.43;;;2.95;;
13040;SDS011;6587;42.728;23.288;2023-07-20T00:04:32;7.40;;;3.10;;
13040;SDS011;6587;42.728;23.288;2023-07-20T00:06:58;11.95;;;2.92;;
13040;SDS011;6587;42.728;23.288;2023-07-20T00:09:26;7.93;;;2.90;;
13040;SDS011;6587;42.728;23.288;2023-07-20T00:11:52;6.63;;;2.88;;
13040;SDS011;6587;42.728;23.288;2023-07-20T00:14:19;8.65;;;3.33;;
13040;SDS011;6587;42.728;23.288;2023-07-20T00:16:47;10.32;;;3.05;;
13040;SDS011;6587;42.728;23.288;2023-07-20T00:19:21;8.60;;;4.00;;
13040;SDS011;6587;42.728;23.288;2023-07-20T00:21:50;13.25;;;3.00;;
13040;SDS011;6587;42.728;23.288;2023-07-20T00:24:17;7.15;;;2.70;;
13040;SDS011;6587;42.728;23.288;2023-07-20T00:26:43;7.60;;;3.50;;
13040;SDS011;6587;42.728;23.288;2023-07-20T00:29:11;6.15;;;2.90;;
13040;SDS011;6587;42.728;23.288;2023-07-20T00:31:39;7.35;;;2.97;;
13040;SDS011;6587;42.728;23.288;2023-07-20T00:34:07;9.00;;;3.78;;
13040;SDS011;6587;42.728;23.288;2023-07-20T00:36:34;8.10;;;3.20;;
13040;SDS011;6587;42.728;23.288;2023-07-20T00:39:02;6.20;;;2.78;;
13040;SDS011;6587;42.728;23.288;2023-07-20T00:41:29;6.93;;;2.90;;
13040;SDS011;6587;42.728;23.288;2023-07-20T00:43:57;10.60;;;3.47;;
13040;SDS011;6587;42.728;23.288;2023-07-20T00:46:24;4.10;;;2.75;;
13040;SDS011;6587;42.728;23.288;2023-07-20T00:48:52;7.10;;;3.20;;
13040;SDS011;6587;42.728;23.288;2023-07-20T00:51:19;9.85;;;3.10;;
13040;SDS011;6587;42.728;23.288;2023-07-20T00:53:47;11.35;;;2.78;;
13040;SDS011;6587;42.728;23.288;2023-07-20T00:56:16;3.70;;;2.80;;
13040;SDS011;6587;42.728;23.288;2023-07-20T00:58:43;7.47;;;2.80;;
13040;SDS011;6587;42.728;23.288;2023-07-20T01:01:26;12.18;;;3.47;;
13040;SDS011;6587;42.728;23.288;2023-07-20T01:03:53;10.10;;;3.70;;
13040;SDS011;6587;42.728;23.288;2023-07-20T01:06:24;6.80;;;3.28;;
13040;SDS011;6587;42.728;23.288;2023-07-20T01:08:57;10.47;;;3.10;;
13040;SDS011;6587;42.728;23.288;2023-07-20T01:11:36;9.65;;;3.08;;
13040;SDS011;6587;42.728;23.288;2023-07-20T01:14:08;8.88;;;3.00;;
13040;SDS011;6587;42.728;23.288;2023-07-20T01:16:35;7.00;;;3.15;;
13040;SDS011;6587;42.728;23.288;2023-07-20T01:19:02;5.75;;;2.58;;
13040;SDS011;6587;42.728;23.288;2023-07-20T01:21:31;8.32;;;2.83;;
13040;SDS011;6587;42.728;23.288;2023-07-20T01:30:14;6.33;;;3.13;;
13040;SDS011;6587;42.728;23.288;2023-07-20T01:32:53;13.63;;;3.28;;
13040;SDS011;6587;42.728;23.288;2023-07-20T01:35:22;7.32;;;3.00;;
13040;SDS011;6587;42.728;23.288;2023-07-20T01:37:53;9.90;;;3.03;;
13040;SDS011;6587;42.728;23.288;2023-07-20T01:40:22;7.60;;;3.43;;
13040;SDS011;6587;42.728;23.288;2023-07-20T01:42:51;5.73;;;2.90;;
13040;SDS011;6587;42.728;23.288;2023-07-20T01:45:19;3.93;;;3.00;;
13040;SDS011;6587;42.728;23.288;2023-07-20T01:47:46;7.63;;;2.90;;
13040;SDS011;6587;42.728;23.288;2023-07-20T01:50:14;9.27;;;3.03;;
13040;SDS011;6587;42.728;23.288;2023-07-20T01:52:41;8.03;;;3.33;;
13040;SDS011;6587;42.728;23.288;2023-07-20T01:55:08;7.50;;;3.17;;
13040;SDS011;6587;42.728;23.288;2023-07-20T01:57:35;7.07;;;3.23;;
13040;SDS011;6587;42.728;23.288;2023-07-20T02:00:03;7.77;;;3.27;;
13040;SDS011;6587;42.728;23.288;2023-07-20T02:02:39;8.00;;;3.33;;
13040;SDS011;6587;42.728;23.288;2023-07-20T02:05:07;10.60;;;3.33;;
13040;SDS011;6587;42.728;23.288;2023-07-20T02:07:36;12.60;;;3.40;;
13040;SDS011;6587;42.728;23.288;2023-07-20T02:10:03;10.17;;;3.60;;
13040;SDS011;6587;42.728;23.288;2023-07-20T02:12:30;10.73;;;4.13;;
13040;SDS011;6587;42.728;23.288;2023-07-20T02:14:57;10.83;;;3.70;;
13040;SDS011;6587;42.728;23.288;2023-07-20T02:17:24;9.43;;;3.73;;
13040;SDS011;6587;42.728;23.288;2023-07-20T02:19:52;7.90;;;3.23;;
13040;SDS011;6587;42.728;23.288;2023-07-20T02:22:20;8.53;;;3.07;;
13040;SDS011;6587;42.728;23.288;2023-07-20T02:24:48;12.43;;;3.47;;
13040;SDS011;6587;42.728;23.288;2023-07-20T02:27:15;10.33;;;3.77;;
13040;SDS011;6587;42.728;23.288;2023-07-20T02:29:43;9.90;;;3.60;;
13040;SDS011;6587;42.728;23.288;2023-07-20T02:32:10;7.20;;;3.30;;
13040;SDS011;6587;42.728;23.288;2023-07-20T02:34:37;11.77;;;3.57;;
13040;SDS011;6587;42.728;23.288;2023-07-20T02:37:04;7.47;;;3.40;;
13040;SDS011;6587;42.728;23.288;2023-07-20T02:39:31;6.90;;;3.27;;
13040;SDS011;6587;42.728;23.288;2023-07-20T02:42:00;11.60;;;3.60;;
13040;SDS011;6587;42.728;23.288;2023-07-20T02:44:27;7.80;;;3.50;;
13040;SDS011;6587;42.728;23.288;2023-07-20T02:46:55;10.17;;;3.40;;
13040;SDS011;6587;42.728;23.288;2023-07-20T02:49:22;7.83;;;3.77;;
13040;SDS011;6587;42.728;23.288;2023-07-20T02:51:49;11.30;;;3.73;;
13040;SDS011;6587;42.728;23.288;2023-07-20T02:54:16;8.77;;;2.87;;
13040;SDS011;6587;42.728;23.288;2023-07-20T02:56:43;9.07;;;3.10;;
13040;SDS011;6587;42.728;23.288;2023-07-20T02:59:11;8.67;;;3.73;;
13040;SDS011;6587;42.728;23.288;2023-07-20T03:01:38;8.80;;;3.77;;
13040;SDS011;6587;42.728;23.288;2023-07-20T03:04:07;12.83;;;4.83;;
13040;SDS011;6587;42.728;23.288;2023-07-20T03:06:35;21.37;;;4.97;;
13040;SDS011;6587;42.728;23.288;2023-07-20T03:09:02;14.43;;;4.50;;
13040;SDS011;6587;42.728;23.288;2023-07-20T03:11:30;15.00;;;4.63;;
13040;SDS011;6587;42.728;23.288;2023-07-20T03:13:59;13.87;;;4.60;;
13040;SDS011;6587;42.728;23.288;2023-07-20T03:16:27;12.43;;;4.20;;
13040;SDS011;6587;42.728;23.288;2023-07-20T03:18:54;16.83;;;4.40;;
13040;SDS011;6587;42.728;23.288;2023-07-20T03:21:24;9.23;;;4.00;;
13040;SDS011;6587;42.728;23.288;2023-07-20T03:23:51;12.77;;;4.07;;
13040;SDS011;6587;42.728;23.288;2023-07-20T03:26:19;9.23;;;3.87;;
13040;SDS011;6587;42.728;23.288;2023-07-20T03:28:46;11.53;;;3.87;;
13040;SDS011;6587;42.728;23.288;2023-07-20T03:31:13;11.30;;;4.30;;
13040;SDS011;6587;42.728;23.288;2023-07-20T03:33:43;13.63;;;4.33;;
13040;SDS011;6587;42.728;23.288;2023-07-20T03:36:12;16.37;;;4.77;;
13040;SDS011;6587;42.728;23.288;2023-07-20T03:38:39;14.70;;;5.07;;
13040;SDS011;6587;42.728;23.288;2023-07-20T03:41:06;13.33;;;4.77;;
13040;SDS011;6587;42.728;23.288;2023-07-20T03:43:32;13.87;;;5.00;;
13040;SDS011;6587;42.728;23.288;2023-07-20T03:45:59;14.10;;;4.83;;
13040;SDS011;6587;42.728;23.288;2023-07-20T03:48:28;11.23;;;4.70;;
13040;SDS011;6587;42.728;23.288;2023-07-20T03:50:57;13.90;;;4.77;;
13040;SDS011;6587;42.728;23.288;2023-07-20T03:53:26;11.63;;;4.70;;
13040;SDS011;6587;42.728;23.288;2023-07-20T03:55:53;15.93;;;5.50;;
13040;SDS011;6587;42.728;23.288;2023-07-20T03:58:20;15.00;;;5.40;;
13040;SDS011;6587;42.728;23.288;2023-07-20T04:00:48;15.93;;;5.43;;
13040;SDS011;6587;42.728;23.288;2023-07-20T04:03:16;23.80;;;5.33;;
13040;SDS011;6587;42.728;23.288;2023-07-20T04:05:44;17.47;;;5.73;;
13040;SDS011;6587;42.728;23.288;2023-07-20T04:08:13;13.83;;;4.83;;
13040;SDS011;6587;42.728;23.288;2023-07-20T04:10:42;12.17;;;5.27;;
13040;SDS011;6587;42.728;23.288;2023-07-20T04:13:10;16.20;;;5.03;;
13040;SDS011;6587;42.728;23.288;2023-07-20T04:15:37;15.40;;;5.20;;
13040;SDS011;6587;42.728;23.288;2023-07-20T04:18:04;14.10;;;4.93;;
13040;SDS011;6587;42.728;23.288;2023-07-20T04:20:31;15.40;;;5.40;;
13040;SDS011;6587;42.728;23.288;2023-07-20T04:22:58;16.07;;;5.53;;
13040;SDS011;6587;42.728;23.288;2023-07-20T04:25:27;13.73;;;4.90;;
13040;SDS011;6587;42.728;23.288;2023-07-20T04:27:54;9.30;;;5.20;;
13040;SDS011;6587;42.728;23.288;2023-07-20T04:30:21;10.23;;;4.97;;
13040;SDS011;6587;42.728;23.288;2023-07-20T04:32:48;10.23;;;4.80;;
13040;SDS011;6587;42.728;23.288;2023-07-20T04:35:17;20.30;;;5.67;;
13040;SDS011;6587;42.728;23.288;2023-07-20T04:37:47;15.63;;;5.50;;
13040;SDS011;6587;42.728;23.288;2023-07-20T04:40:17;47.03;;;8.87;;
13040;SDS011;6587;42.728;23.288;2023-07-20T04:42:45;19.93;;;5.87;;
13040;SDS011;6587;42.728;23.288;2023-07-20T04:45:12;19.40;;;5.83;;
13040;SDS011;6587;42.728;23.288;2023-07-20T04:47:40;24.53;;;6.37;;
13040;SDS011;6587;42.728;23.288;2023-07-20T04:50:07;10.57;;;5.70;;
13040;SDS011;6587;42.728;23.288;2023-07-20T04:52:34;12.07;;;5.53;;
13040;SDS011;6587;42.728;23.288;2023-07-20T04:55:01;17.00;;;6.57;;
13040;SDS011;6587;42.728;23.288;2023-07-20T04:57:29;16.70;;;6.00;;
13040;SDS011;6587;42.728;23.288;2023-07-20T04:59:58;16.57;;;5.70;;
13040;SDS011;6587;42.728;23.288;2023-07-20T05:02:25;17.63;;;6.13;;
13040;SDS011;6587;42.728;23.288;2023-07-20T05:04:52;10.50;;;6.17;;
13040;SDS011;6587;42.728;23.288;2023-07-20T05:07:19;11.13;;;6.53;;
13040;SDS011;6587;42.728;23.288;2023-07-20T05:09:46;14.07;;;6.20;;
13040;SDS011;6587;42.728;23.288;2023-07-20T05:12:13;15.73;;;6.17;;
13040;SDS011;6587;42.728;23.288;2023-07-20T05:14:40;16.83;;;7.33;;
13040;SDS011;6587;42.728;23.288;2023-07-20T05:17:09;18.50;;;6.40;;
13040;SDS011;6587;42.728;23.288;2023-07-20T05:19:36;12.83;;;6.33;;
13040;SDS011;6587;42.728;23.288;2023-07-20T05:22:03;11.67;;;5.97;;
13040;SDS011;6587;42.728;23.288;2023-07-20T05:24:31;18.23;;;6.93;;
13040;SDS011;6587;42.728;23.288;2023-07-20T05:26:58;20.83;;;7.33;;
13040;SDS011;6587;42.728;23.288;2023-07-20T05:29:25;26.00;;;6.27;;
13040;SDS011;6587;42.728;23.288;2023-07-20T05:31:51;8.70;;;5.40;;
13040;SDS011;6587;42.728;23.288;2023-07-20T05:34:20;14.63;;;5.87;;
13040;SDS011;6587;42.728;23.288;2023-07-20T05:39:38;23.03;;;6.23;;
13040;SDS011;6587;42.728;23.288;2023-07-20T05:42:05;21.07;;;7.47;;
13040;SDS011;6587;42.728;23.288;2023-07-20T05:44:32;14.07;;;6.07;;
13040;SDS011;6587;42.728;23.288;2023-07-20T05:46:58;17.07;;;6.00;;
13040;SDS011;6587;42.728;23.288;2023-07-20T05:49:27;11.00;;;5.20;;
13040;SDS011;6587;42.728;23.288;2023-07-20T05:51:54;15.20;;;5.40;;
13040;SDS011;6587;42.728;23.288;2023-07-20T05:54:21;11.07;;;4.93;;
13040;SDS011;6587;42.728;23.288;2023-07-20T05:56:48;13.80;;;6.43;;
13040;SDS011;6587;42.728;23.288;2023-07-20T05:59:14;15.47;;;6.27;;
13040;SDS011;6587;42.728;23.288;2023-07-20T06:01:42;16.13;;;6.83;;
13040;SDS011;6587;42.728;23.288;2023-07-20T06:04:09;13.70;;;6.15;;
13040;SDS011;6587;42.728;23.288;2023-07-20T06:06:37;12.77;;;5.87;;
13040;SDS011;6587;42.728;23.288;2023-07-20T06:09:04;11.43;;;6.50;;
13040;SDS011;6587;42.728;23.288;2023-07-20T06:11:35;15.13;;;6.73;;
13040;SDS011;6587;42.728;23.288;2023-07-20T06:14:01;14.27;;;6.67;;
13040;SDS011;6587;42.728;23.288;2023-07-20T06:16:28;11.93;;;5.93;;
13040;SDS011;6587;42.728;23.288;2023-07-20T06:18:55;15.20;;;6.05;;
13040;SDS011;6587;42.728;23.288;2023-07-20T06:21:22;10.40;;;5.63;;
13040;SDS011;6587;42.728;23.288;2023-07-20T06:23:51;13.00;;;6.27;;
13040;SDS011;6587;42.728;23.288;2023-07-20T06:26:18;16.70;;;6.50;;
13040;SDS011;6587;42.728;23.288;2023-07-20T06:28:46;11.63;;;6.07;;
13040;SDS011;6587;42.728;23.288;2023-07-20T06:31:12;11.88;;;5.57;;
13040;SDS011;6587;42.728;23.288;2023-07-20T06:33:39;16.75;;;5.50;;
13040;SDS011;6587;42.728;23.288;2023-07-20T06:36:06;11.10;;;5.28;;
13040;SDS011;6587;42.728;23.288;2023-07-20T06:38:33;13.95;;;5.90;;
13040;SDS011;6587;42.728;23.288;2023-07-20T06:41:01;16.20;;;5.75;;
13040;SDS011;6587;42.728;23.288;2023-07-20T06:43:28;13.18;;;6.18;;
13040;SDS011;6587;42.728;23.288;2023-07-20T06:45:55;15.30;;;6.13;;
13040;SDS011;6587;42.728;23.288;2023-07-20T06:48:22;16.63;;;6.28;;
13040;SDS011;6587;42.728;23.288;2023-07-20T06:50:48;10.43;;;5.63;;
13040;SDS011;6587;42.728;23.288;2023-07-20T06:53:15;13.10;;;5.32;;
13040;SDS011;6587;42.728;23.288;2023-07-20T06:55:43;13.77;;;5.50;;
13040;SDS011;6587;42.728;23.288;2023-07-20T06:58:11;18.65;;;5.88;;
13040;SDS011;6587;42.728;23.288;2023-07-20T07:00:38;15.52;;;5.05;;
13040;SDS011;6587;42.728;23.288;2023-07-20T07:03:06;8.65;;;5.05;;
13040;SDS011;6587;42.728;23.288;2023-07-20T07:05:35;11.43;;;4.90;;
13040;SDS011;6587;42.728;23.288;2023-07-20T07:08:02;12.50;;;4.72;;
13040;SDS011;6587;42.728;23.288;2023-07-20T07:10:30;12.68;;;4.80;;
13040;SDS011;6587;42.728;23.288;2023-07-20T07:12:57;15.55;;;4.80;;
13040;SDS011;6587;42.728;23.288;2023-07-20T07:15:25;12.98;;;5.50;;
13040;SDS011;6587;42.728;23.288;2023-07-20T07:17:52;12.52;;;5.30;;
13040;SDS011;6587;42.728;23.288;2023-07-20T07:20:19;16.45;;;5.43;;
13040;SDS011;6587;42.728;23.288;2023-07-20T07:22:46;12.02;;;4.70;;
13040;SDS011;6587;42.728;23.288;2023-07-20T07:25:13;8.68;;;4.38;;
13040;SDS011;6587;42.728;23.288;2023-07-20T07:27:40;9.43;;;4.57;;
13040;SDS011;6587;42.728;23.288;2023-07-20T07:30:07;8.45;;;4.65;;
13040;SDS011;6587;42.728;23.288;2023-07-20T07:32:36;10.43;;;4.65;;
13040;SDS011;6587;42.728;23.288;2023-07-20T07:35:03;8.95;;;4.15;;
13040;SDS011;6587;42.728;23.288;2023-07-20T07:37:30;11.32;;;4.80;;
13040;SDS011;6587;42.728;23.288;2023-07-20T07:39:57;11.55;;;5.05;;
13040;SDS011;6587;42.728;23.288;2023-07-20T07:42:24;11.10;;;4.93;;
13040;SDS011;6587;42.728;23.288;2023-07-20T07:44:51;16.58;;;4.88;;
13040;SDS011;6587;42.728;23.288;2023-07-20T07:47:18;9.85;;;4.80;;
13040;SDS011;6587;42.728;23.288;2023-07-20T07:49:46;10.65;;;4.72;;
13040;SDS011;6587;42.728;23.288;2023-07-20T07:52:13;9.88;;;4.55;;
13040;SDS011;6587;42.728;23.288;2023-07-20T07:54:40;14.73;;;4.70;;
13040;SDS011;6587;42.728;23.288;2023-07-20T07:57:07;9.15;;;4.18;;
13040;SDS011;6587;42.728;23.288;2023-07-20T07:59:34;9.77;;;4.57;;
13040;SDS011;6587;42.728;23.288;2023-07-20T08:02:04;7.53;;;4.18;;
13040;SDS011;6587;42.728;23.288;2023-07-20T08:04:32;7.70;;;4.13;;
13040;SDS011;6587;42.728;23.288;2023-07-20T08:07:02;13.98;;;4.78;;
13040;SDS011;6587;42.728;23.288;2023-07-20T08:09:30;8.65;;;4.68;;
13040;SDS011;6587;42.728;23.288;2023-07-20T08:11:57;10.18;;;4.53;;
13040;SDS011;6587;42.728;23.288;2023-07-20T08:14:24;12.73;;;4.55;;
13040;SDS011;6587;42.728;23.288;2023-07-20T08:16:51;18.08;;;4.20;;
13040;SDS011;6587;42.728;23.288;2023-07-20T08:19:19;12.38;;;4.13;;
13040;SDS011;6587;42.728;23.288;2023-07-20T08:21:46;14.30;;;4.18;;
13040;SDS011;6587;42.728;23.288;2023-07-20T08:24:15;7.43;;;3.28;;
13040;SDS011;6587;42.728;23.288;2023-07-20T08:26:41;8.27;;;3.55;;
13040;SDS011;6587;42.728;23.288;2023-07-20T08:29:08;11.40;;;3.70;;
13040;SDS011;6587;42.728;23.288;2023-07-20T08:31:35;10.30;;;3.13;;
13040;SDS011;6587;42.728;23.288;2023-07-20T08:34:02;8.20;;;3.17;;
13040;SDS011;6587;42.728;23.288;2023-07-20T08:36:29;4.93;;;3.13;;
13040;SDS011;6587;42.728;23.288;2023-07-20T08:38:56;6.88;;;2.80;;
13040;SDS011;6587;42.728;23.288;2023-07-20T08:41:25;11.00;;;3.35;;
13040;SDS011;6587;42.728;23.288;2023-07-20T08:43:51;7.97;;;2.85;;
13040;SDS011;6587;42.728;23.288;2023-07-20T08:46:22;6.20;;;3.03;;
13040;SDS011;6587;42.728;23.288;2023-07-20T08:48:50;7.90;;;3.03;;
13040;SDS011;6587;42.728;23.288;2023-07-20T08:51:18;6.63;;;3.17;;
13040;SDS011;6587;42.728;23.288;2023-07-20T08:53:47;6.20;;;3.05;;
13040;SDS011;6587;42.728;23.288;2023-07-20T08:56:17;8.60;;;3.40;;
13040;SDS011;6587;42.728;23.288;2023-07-20T08:58:47;6.13;;;2.85;;
13040;SDS011;6587;42.728;23.288;2023-07-20T09:01:14;7.68;;;2.80;;
13040;SDS011;6587;42.728;23.288;2023-07-20T09:03:41;11.38;;;3.38;;
13040;SDS011;6587;42.728;23.288;2023-07-20T09:06:10;10.35;;;3.28;;
13040;SDS011;6587;42.728;23.288;2023-07-20T09:08:37;8.43;;;2.88;;
13040;SDS011;6587;42.728;23.288;2023-07-20T09:11:04;8.80;;;3.50;;
13040;SDS011;6587;42.728;23.288;2023-07-20T09:13:32;9.10;;;3.03;;
13040;SDS011;6587;42.728;23.288;2023-07-20T09:16:00;8.57;;;3.03;;
13040;SDS011;6587;42.728;23.288;2023-07-20T09:18:28;6.97;;;3.17;;
13040;SDS011;6587;42.728;23.288;2023-07-20T09:21:00;8.23;;;3.20;;
13040;SDS011;6587;42.728;23.288;2023-07-20T09:23:31;6.88;;;2.83;;
13040;SDS011;6587;42.728;23.288;2023-07-20T09:25:59;5.50;;;3.15;;
13040;SDS011;6587;42.728;23.288;2023-07-20T09:28:27;8.82;;;2.95;;
13040;SDS011;6587;42.728;23.288;2023-07-20T09:30:54;10.20;;;3.30;;
13040;SDS011;6587;42.728;23.288;2023-07-20T09:33:25;8.73;;;3.22;;
13040;SDS011;6587;42.728;23.288;2023-07-20T09:35:51;6.85;;;3.10;;
13040;SDS011;6587;42.728;23.288;2023-07-20T09:38:18;8.80;;;2.90;;
13040;SDS011;6587;42.728;23.288;2023-07-20T09:40:45;9.85;;;3.20;;
13040;SDS011;6587;42.728;23.288;2023-07-20T09:43:12;6.68;;;3.17;;
13040;SDS011;6587;42.728;23.288;2023-07-20T09:45:42;6.60;;;3.08;;
13040;SDS011;6587;42.728;23.288;2023-07-20T09:48:10;6.25;;;3.05;;
13040;SDS011;6587;42.728;23.288;2023-07-20T09:50:42;6.38;;;2.88;;
13040;SDS011;6587;42.728;23.288;2023-07-20T09:53:15;12.50;;;2.97;;
13040;SDS011;6587;42.728;23.288;2023-07-20T09:55:44;9.50;;;3.05;;
13040;SDS011;6587;42.728;23.288;2023-07-20T09:58:11;7.78;;;2.60;;
13040;SDS011;6587;42.728;23.288;2023-07-20T10:00:39;6.63;;;2.50;;
13040;SDS011;6587;42.728;23.288;2023-07-20T10:03:08;10.75;;;3.05;;
13040;SDS011;6587;42.728;23.288;2023-07-20T10:05:39;10.45;;;3.08;;
13040;SDS011;6587;42.728;23.288;2023-07-20T10:08:11;6.00;;;2.72;;
13040;SDS011;6587;42.728;23.288;2023-07-20T10:10:40;5.47;;;3.05;;
13040;SDS011;6587;42.728;23.288;2023-07-20T10:13:10;8.20;;;2.83;;
13040;SDS011;6587;42.728;23.288;2023-07-20T10:15:45;7.80;;;2.55;;
13040;SDS011;6587;42.728;23.288;2023-07-20T10:18:16;8.63;;;2.75;;
13040;SDS011;6587;42.728;23.288;2023-07-20T10:20:48;5.85;;;2.78;;
13040;SDS011;6587;42.728;23.288;2023-07-20T10:23:19;4.25;;;2.42;;
13040;SDS011;6587;42.728;23.288;2023-07-20T10:25:46;6.78;;;2.75;;
13040;SDS011;6587;42.728;23.288;2023-07-20T10:28:13;7.40;;;2.88;;
13040;SDS011;6587;42.728;23.288;2023-07-20T10:30:40;6.88;;;2.50;;
13040;SDS011;6587;42.728;23.288;2023-07-20T10:33:08;9.05;;;2.80;;
13040;SDS011;6587;42.728;23.288;2023-07-20T10:35:50;7.05;;;2.97;;
13040;SDS011;6587;42.728;23.288;2023-07-20T10:38:19;5.53;;;2.85;;
13040;SDS011;6587;42.728;23.288;2023-07-20T10:40:53;7.45;;;2.80;;
13040;SDS011;6587;42.728;23.288;2023-07-20T10:43:21;8.25;;;2.47;;
13040;SDS011;6587;42.728;23.288;2023-07-20T10:45:48;7.57;;;2.67;;
13040;SDS011;6587;42.728;23.288;2023-07-20T10:48:18;6.05;;;3.00;;
13040;SDS011;6587;42.728;23.288;2023-07-20T10:50:46;6.43;;;2.85;;
13040;SDS011;6587;42.728;23.288;2023-07-20T10:53:37;6.07;;;2.60;;
13040;SDS011;6587;42.728;23.288;2023-07-20T10:56:08;7.60;;;2.78;;
13040;SDS011;6587;42.728;23.288;2023-07-20T10:58:38;7.18;;;2.95;;
13040;SDS011;6587;42.728;23.288;2023-07-20T11:01:06;5.95;;;3.05;;
13040;SDS011;6587;42.728;23.288;2023-07-20T11:03:33;6.30;;;2.65;;
13040;SDS011;6587;42.728;23.288;2023-07-20T11:09:08;5.70;;;2.53;;
13040;SDS011;6587;42.728;23.288;2023-07-20T11:11:40;9.30;;;2.88;;
13040;SDS011;6587;42.728;23.288;2023-07-20T11:14:08;6.13;;;2.78;;
13040;SDS011;6587;42.728;23.288;2023-07-20T11:16:38;6.15;;;2.80;;
13040;SDS011;6587;42.728;23.288;2023-07-20T11:19:10;6.38;;;2.67;;
13040;SDS011;6587;42.728;23.288;2023-07-20T11:21:42;6.93;;;2.85;;
13040;SDS011;6587;42.728;23.288;2023-07-20T11:24:11;6.18;;;2.78;;
13040;SDS011;6587;42.728;23.288;2023-07-20T11:26:45;6.78;;;2.67;;
13040;SDS011;6587;42.728;23.288;2023-07-20T11:29:13;5.43;;;2.92;;
13040;SDS011;6587;42.728;23.288;2023-07-20T11:31:42;12.55;;;7.28;;
13040;SDS011;6587;42.728;23.288;2023-07-20T11:34:11;7.30;;;3.40;;
13040;SDS011;6587;42.728;23.288;2023-07-20T11:36:39;5.63;;;3.20;;
13040;SDS011;6587;42.728;23.288;2023-07-20T11:39:08;7.60;;;3.13;;
13040;SDS011;6587;42.728;23.288;2023-07-20T11:41:37;9.80;;;3.45;;
13040;SDS011;6587;42.728;23.288;2023-07-20T11:44:05;6.15;;;2.90;;
13040;SDS011;6587;42.728;23.288;2023-07-20T11:46:33;11.25;;;4.10;;
13040;SDS011;6587;42.728;23.288;2023-07-20T11:49:00;7.95;;;3.08;;
13040;SDS011;6587;42.728;23.288;2023-07-20T11:51:28;7.10;;;3.55;;
13040;SDS011;6587;42.728;23.288;2023-07-20T11:53:55;6.50;;;3.20;;
13040;SDS011;6587;42.728;23.288;2023-07-20T11:56:23;9.80;;;3.50;;
13040;SDS011;6587;42.728;23.288;2023-07-20T11:58:55;6.13;;;3.65;;
13040;SDS011;6587;42.728;23.288;2023-07-20T12:01:24;6.93;;;3.63;;
13040;SDS011;6587;42.728;23.288;2023-07-20T12:03:54;6.50;;;3.30;;
13040;SDS011;6587;42.728;23.288;2023-07-20T12:06:22;7.38;;;3.85;;
13040;SDS011;6587;42.728;23.288;2023-07-20T12:08:50;9.27;;;3.40;;
13040;SDS011;6587;42.728;23.288;2023-07-20T12:11:30;7.85;;;3.60;;
13040;SDS011;6587;42.728;23.288;2023-07-20T12:13:59;5.45;;;3.25;;
13040;SDS011;6587;42.728;23.288;2023-07-20T12:16:26;10.38;;;3.67;;
13040;SDS011;6587;42.728;23.288;2023-07-20T12:18:59;8.18;;;3.50;;
13040;SDS011;6587;42.728;23.288;2023-07-20T12:21:26;7.28;;;3.47;;
13040;SDS011;6587;42.728;23.288;2023-07-20T12:23:53;6.55;;;3.35;;
13040;SDS011;6587;42.728;23.288;2023-07-20T12:26:22;7.40;;;3.50;;
13040;SDS011;6587;42.728;23.288;2023-07-20T12:28:50;7.30;;;3.67;;
13040;SDS011;6587;42.728;23.288;2023-07-20T12:31:18;9.38;;;3.22;;
13040;SDS011;6587;42.728;23.288;2023-07-20T12:33:46;7.07;;;3.30;;
13040;SDS011;6587;42.728;23.288;2023-07-20T12:36:13;9.70;;;3.25;;
13040;SDS011;6587;42.728;23.288;2023-07-20T12:38:40;6.50;;;3.20;;
13040;SDS011;6587;42.728;23.288;2023-07-20T12:41:07;9.82;;;3.30;;
13040;SDS011;6587;42.728;23.288;2023-07-20T12:43:37;4.22;;;2.60;;
13040;SDS011;6587;42.728;23.288;2023-07-20T12:46:05;6.25;;;3.20;;
13040;SDS011;6587;42.728;23.288;2023-07-20T12:48:33;11.00;;;3.65;;
13040;SDS011;6587;42.728;23.288;2023-07-20T12:51:02;11.20;;;3.88;;
13040;SDS011;6587;42.728;23.288;2023-07-20T12:53:30;9.60;;;3.58;;
13040;SDS011;6587;42.728;23.288;2023-07-20T12:55:57;10.10;;;3.65;;
13040;SDS011;6587;42.728;23.288;2023-07-20T12:58:24;6.57;;;3.08;;
13040;SDS011;6587;42.728;23.288;2023-07-20T13:00:51;10.23;;;3.67;;
13040;SDS011;6587;42.728;23.288;2023-07-20T13:03:18;5.22;;;3.13;;
13040;SDS011;6587;42.728;23.288;2023-07-20T13:05:47;6.53;;;3.20;;
13040;SDS011;6587;42.728;23.288;2023-07-20T13:08:14;7.78;;;3.30;;
13040;SDS011;6587;42.728;23.288;2023-07-20T13:10:41;12.00;;;3.20;;
13040;SDS011;6587;42.728;23.288;2023-07-20T13:13:08;11.75;;;3.28;;
13040;SDS011;6587;42.728;23.288;2023-07-20T13:15:40;7.78;;;2.95;;
13040;SDS011;6587;42.728;23.288;2023-07-20T13:18:08;8.05;;;2.85;;
13040;SDS011;6587;42.728;23.288;2023-07-20T13:20:35;8.52;;;3.05;;
13040;SDS011;6587;42.728;23.288;2023-07-20T13:23:04;9.35;;;3.10;;
13040;SDS011;6587;42.728;23.288;2023-07-20T13:25:31;7.78;;;3.17;;
13040;SDS011;6587;42.728;23.288;2023-07-20T13:27:58;7.50;;;2.65;;
13040;SDS011;6587;42.728;23.288;2023-07-20T13:30:24;6.00;;;3.13;;
13040;SDS011;6587;42.728;23.288;2023-07-20T13:32:51;7.45;;;3.20;;
13040;SDS011;6587;42.728;23.288;2023-07-20T13:35:18;8.73;;;2.83;;
13040;SDS011;6587;42.728;23.288;2023-07-20T13:37:45;10.50;;;3.33;;
13040;SDS011;6587;42.728;23.288;2023-07-20T13:40:14;7.10;;;3.08;;
13040;SDS011;6587;42.728;23.288;2023-07-20T13:42:43;8.43;;;3.35;;
13040;SDS011;6587;42.728;23.288;2023-07-20T13:45:10;10.15;;;3.60;;
13040;SDS011;6587;42.728;23.288;2023-07-20T13:47:37;7.78;;;3.55;;
13040;SDS011;6587;42.728;23.288;2023-07-20T13:50:04;7.70;;;2.70;;
13040;SDS011;6587;42.728;23.288;2023-07-20T13:52:32;5.80;;;2.92;;
13040;SDS011;6587;42.728;23.288;2023-07-20T13:54:59;4.90;;;2.72;;
13040;SDS011;6587;42.728;23.288;2023-07-20T13:57:27;6.40;;;2.58;;
13040;SDS011;6587;42.728;23.288;2023-07-20T13:59:54;7.43;;;2.95;;
13040;SDS011;6587;42.728;23.288;2023-07-20T14:02:21;8.25;;;2.97;;
13040;SDS011;6587;42.728;23.288;2023-07-20T14:04:48;4.70;;;2.85;;
13040;SDS011;6587;42.728;23.288;2023-07-20T14:07:15;9.00;;;2.58;;
13040;SDS011;6587;42.728;23.288;2023-07-20T14:09:41;10.40;;;3.25;;
13040;SDS011;6587;42.728;23.288;2023-07-20T14:12:09;8.20;;;2.75;;
13040;SDS011;6587;42.728;23.288;2023-07-20T14:14:40;7.38;;;2.90;;
13040;SDS011;6587;42.728;23.288;2023-07-20T14:17:07;8.02;;;3.10;;
13040;SDS011;6587;42.728;23.288;2023-07-20T14:19:34;6.65;;;3.10;;
13040;SDS011;6587;42.728;23.288;2023-07-20T14:22:03;8.27;;;3.08;;
13040;SDS011;6587;42.728;23.288;2023-07-20T14:24:30;7.50;;;2.60;;
13040;SDS011;6587;42.728;23.288;2023-07-20T14:26:57;9.45;;;3.22;;
13040;SDS011;6587;42.728;23.288;2023-07-20T14:29:25;11.27;;;2.80;;
13040;SDS011;6587;42.728;23.288;2023-07-20T14:31:54;8.27;;;2.85;;
13040;SDS011;6587;42.728;23.288;2023-07-20T14:34:21;10.30;;;3.00;;
13040;SDS011;6587;42.728;23.288;2023-07-20T14:36:48;5.97;;;2.65;;
13040;SDS011;6587;42.728;23.288;2023-07-20T14:39:15;6.20;;;2.97;;
13040;SDS011;6587;42.728;23.288;2023-07-20T14:41:42;7.15;;;2.85;;
13040;SDS011;6587;42.728;23.288;2023-07-20T14:44:09;6.20;;;2.95;;
13040;SDS011;6587;42.728;23.288;2023-07-20T14:46:35;5.95;;;3.22;;
13040;SDS011;6587;42.728;23.288;2023-07-20T14:49:04;8.38;;;3.40;;
13040;SDS011;6587;42.728;23.288;2023-07-20T14:51:30;8.93;;;3.20;;
13040;SDS011;6587;42.728;23.288;2023-07-20T14:53:58;8.68;;;3.53;;
13040;SDS011;6587;42.728;23.288;2023-07-20T14:56:25;9.48;;;3.67;;
13040;SDS011;6587;42.728;23.288;2023-07-20T14:58:52;10.80;;;3.60;;
13040;SDS011;6587;42.728;23.288;2023-07-20T15:01:19;7.35;;;3.40;;